createdAt,value
2023-11-10T00:02:17.897Z,5.70
2023-11-10T00:04:49.962Z,5.30
2023-11-10T00:07:18.453Z,5.80
2023-11-10T00:09:46.867Z,5.00
2023-11-10T00:12:16.204Z,5.50
2023-11-10T00:14:44.313Z,6.00
2023-11-10T00:17:12.050Z,5.80
2023-11-10T00:19:43.051Z,5.60
2023-11-10T00:22:14.135Z,6.00
2023-11-10T00:24:46.268Z,5.90
2023-11-10T00:27:18.037Z,5.60
2023-11-10T00:29:46.381Z,4.70
2023-11-10T00:32:14.663Z,5.00
2023-11-10T00:34:42.665Z,5.70
2023-11-10T00:37:11.816Z,6.70
2023-11-10T00:39:39.635Z,6.60
2023-11-10T00:42:07.701Z,7.10
2023-11-10T00:44:37.946Z,7.70
2023-11-10T00:47:05.782Z,6.80
2023-11-10T00:49:33.678Z,7.40
2023-11-10T00:52:01.363Z,8.00
2023-11-10T00:56:56.784Z,6.80
2023-11-10T00:59:24.772Z,6.80
2023-11-10T01:01:52.517Z,7.70
2023-11-10T01:04:20.358Z,7.30
2023-11-10T01:06:48.306Z,7.30
2023-11-10T01:09:16.139Z,7.40
2023-11-10T01:11:44.512Z,6.70
2023-11-10T01:14:12.819Z,6.80
2023-11-10T01:16:40.718Z,7.10
2023-11-10T01:19:09.290Z,7.10
2023-11-10T01:21:37.093Z,6.90
2023-11-10T01:24:05.270Z,7.60
2023-11-10T01:26:33.233Z,7.20
2023-11-10T01:29:01.082Z,6.50
2023-11-10T01:31:29.056Z,6.00
2023-11-10T01:33:57.473Z,7.50
2023-11-10T01:36:25.556Z,5.30
2023-11-10T01:38:53.412Z,5.80
2023-11-10T01:43:49.531Z,6.00
2023-11-10T01:46:46.591Z,7.50
2023-11-10T01:49:19.858Z,7.30
2023-11-10T01:51:52.823Z,6.70
2023-11-10T01:54:25.132Z,6.30
2023-11-10T01:56:53.602Z,6.60
2023-11-10T01:59:21.907Z,6.30
2023-11-10T02:01:49.913Z,6.00
2023-11-10T02:04:18.874Z,6.00
2023-11-10T02:06:48.297Z,6.30
2023-11-10T02:09:16.943Z,6.20
2023-11-10T02:11:45.148Z,6.50
2023-11-10T02:14:14.851Z,6.40
2023-11-10T02:16:43.545Z,5.80
2023-11-10T02:19:16.516Z,5.90
2023-11-10T02:21:45.672Z,5.50
2023-11-10T02:24:15.184Z,6.50
2023-11-10T02:26:43.019Z,6.10
2023-11-10T02:29:12.139Z,5.20
2023-11-10T02:31:41.243Z,5.00
2023-11-10T02:34:09.173Z,5.70
2023-11-10T02:36:38.629Z,5.20
2023-11-10T02:39:08.442Z,5.30
2023-11-10T02:41:37.705Z,4.80
2023-11-10T02:44:05.898Z,5.00
2023-11-10T02:46:33.788Z,3.90
2023-11-10T02:49:01.870Z,4.30
2023-11-10T02:51:29.624Z,3.80
2023-11-10T02:53:57.626Z,4.30
2023-11-10T02:56:25.418Z,4.40
2023-11-10T02:58:54.055Z,4.80
2023-11-10T03:01:23.700Z,4.70
2023-11-10T03:03:52.118Z,5.80
2023-11-10T03:06:19.921Z,5.80
2023-11-10T03:08:48.331Z,5.00
2023-11-10T03:11:16.807Z,5.80
2023-11-10T03:13:47.490Z,5.20
2023-11-10T03:16:15.821Z,5.40
2023-11-10T03:18:44.151Z,5.10
2023-11-10T03:21:18.124Z,4.40
2023-11-10T03:23:46.790Z,5.10
2023-11-10T03:26:14.552Z,4.40
2023-11-10T03:28:42.444Z,4.90
2023-11-10T03:31:11.077Z,4.90
2023-11-10T03:33:38.857Z,5.30
2023-11-10T03:36:09.668Z,4.80
2023-11-10T03:38:37.576Z,4.60
2023-11-10T03:41:05.364Z,5.20
2023-11-10T03:43:33.233Z,5.00
2023-11-10T03:46:01.077Z,5.10
2023-11-10T03:48:29.626Z,4.70
2023-11-10T03:50:57.893Z,4.70
2023-11-10T03:53:25.635Z,4.70
2023-11-10T03:55:53.757Z,4.50
2023-11-10T03:58:21.523Z,4.70
2023-11-10T04:00:50.715Z,5.20
2023-11-10T04:03:18.965Z,4.70
2023-11-10T04:05:47.327Z,4.00
2023-11-10T04:08:16.009Z,3.50
2023-11-10T04:10:44.203Z,3.40
2023-11-10T04:13:12.655Z,4.00
2023-11-10T04:15:40.559Z,4.30
2023-11-10T04:18:08.309Z,4.50
2023-11-10T04:20:36.351Z,3.50
2023-11-10T04:23:04.160Z,3.90
2023-11-10T04:25:33.476Z,3.80
2023-11-10T04:28:01.670Z,3.30
2023-11-10T04:30:30.681Z,3.50
2023-11-10T04:32:58.545Z,3.20
2023-11-10T04:35:26.274Z,2.60
2023-11-10T04:37:53.893Z,3.70
2023-11-10T04:42:49.437Z,4.40
2023-11-10T04:45:17.560Z,3.30
2023-11-10T04:47:49.226Z,3.40
2023-11-10T04:50:17.463Z,4.10
2023-11-10T04:52:45.082Z,3.60
2023-11-10T04:57:40.742Z,4.20
2023-11-10T05:00:09.536Z,3.20
2023-11-10T05:02:38.047Z,3.40
2023-11-10T05:05:07.639Z,3.10
2023-11-10T05:07:35.935Z,2.80
2023-11-10T05:10:04.524Z,2.70
2023-11-10T05:12:32.405Z,2.50
2023-11-10T05:15:00.253Z,3.30
2023-11-10T05:17:28.119Z,2.80
2023-11-10T05:19:56.275Z,2.60
2023-11-10T05:22:24.248Z,2.00
2023-11-10T05:24:52.348Z,2.00
2023-11-10T05:27:20.174Z,1.90
2023-11-10T05:29:47.909Z,1.60
2023-11-10T05:32:16.679Z,1.10
2023-11-10T05:34:44.769Z,1.50
2023-11-10T05:37:12.716Z,1.80
2023-11-10T05:39:40.937Z,1.70
2023-11-10T05:42:09.185Z,1.50
2023-11-10T05:44:36.929Z,1.30
2023-11-10T05:47:04.700Z,1.60
2023-11-10T05:49:32.366Z,1.60
2023-11-10T05:52:00.964Z,1.50
2023-11-10T05:54:30.295Z,1.80
2023-11-10T05:56:58.326Z,2.40
2023-11-10T05:59:29.051Z,2.40
2023-11-10T06:01:57.525Z,2.30
2023-11-10T06:04:32.268Z,1.90
2023-11-10T06:07:04.610Z,2.30
2023-11-10T06:09:33.022Z,2.10
2023-11-10T06:12:01.639Z,2.50
2023-11-10T06:14:30.701Z,2.10
2023-11-10T06:16:59.044Z,2.10
2023-11-10T06:19:27.054Z,2.10
2023-11-10T06:21:54.875Z,2.30
2023-11-10T06:24:24.425Z,2.80
2023-11-10T06:26:52.286Z,2.30
2023-11-10T06:29:19.969Z,2.20
2023-11-10T06:31:48.513Z,1.90
2023-11-10T06:34:16.561Z,2.30
2023-11-10T06:36:44.304Z,1.60
2023-11-10T06:39:12.442Z,2.40
2023-11-10T06:41:40.860Z,1.70
2023-11-10T06:44:10.517Z,2.10
2023-11-10T06:46:39.085Z,1.70
2023-11-10T06:49:06.993Z,1.80
2023-11-10T06:51:34.964Z,1.70
2023-11-10T06:54:02.908Z,1.80
2023-11-10T06:56:30.761Z,2.10
2023-11-10T06:58:58.453Z,2.20
2023-11-10T07:01:28.483Z,2.20
2023-11-10T07:03:56.684Z,1.90
2023-11-10T07:06:24.621Z,1.90
2023-11-10T07:08:52.328Z,1.90
2023-11-10T07:11:22.497Z,2.60
2023-11-10T07:13:51.280Z,2.40
2023-11-10T07:16:22.232Z,2.40
2023-11-10T07:18:50.359Z,1.50
2023-11-10T07:21:18.929Z,2.50
2023-11-10T07:23:46.756Z,2.80
2023-11-10T07:26:14.666Z,2.60
2023-11-10T07:28:42.932Z,2.80
2023-11-10T07:31:11.100Z,2.20
2023-11-10T07:33:39.295Z,2.70
2023-11-10T07:36:07.669Z,3.10
2023-11-10T07:38:36.269Z,2.50
2023-11-10T07:41:06.374Z,2.30
2023-11-10T07:43:34.136Z,2.90
2023-11-10T07:46:06.335Z,2.90
2023-11-10T07:48:36.820Z,3.00
2023-11-10T07:51:05.838Z,2.90
2023-11-10T07:53:33.648Z,2.50
2023-11-10T07:56:02.437Z,2.60
2023-11-10T07:58:31.189Z,3.00
2023-11-10T08:00:59.147Z,2.60
2023-11-10T08:03:27.986Z,2.60
2023-11-10T08:05:56.839Z,2.50
2023-11-10T08:08:24.535Z,2.70
2023-11-10T08:10:53.132Z,2.30
2023-11-10T08:13:20.974Z,3.00
2023-11-10T08:15:49.569Z,1.90
2023-11-10T08:18:18.406Z,2.30
2023-11-10T08:20:46.163Z,2.30
2023-11-10T08:23:15.463Z,1.80
2023-11-10T08:25:43.383Z,2.10
2023-11-10T08:28:11.372Z,1.80
2023-11-10T08:30:39.524Z,2.40
2023-11-10T08:33:07.858Z,2.20
2023-11-10T08:35:35.705Z,2.00
2023-11-10T08:38:04.585Z,2.30
2023-11-10T08:40:35.513Z,2.40
2023-11-10T08:43:03.464Z,1.80
2023-11-10T08:45:32.280Z,2.30
2023-11-10T08:48:00.590Z,2.00
2023-11-10T08:50:28.695Z,2.00
2023-11-10T08:52:56.530Z,2.30
2023-11-10T08:55:25.189Z,2.30
2023-11-10T08:57:53.397Z,2.50
2023-11-10T09:00:21.492Z,2.00
2023-11-10T09:02:50.969Z,1.90
2023-11-10T09:05:21.358Z,1.90
2023-11-10T09:07:49.658Z,2.30
2023-11-10T09:10:18.160Z,2.00
2023-11-10T09:12:49.760Z,2.40
2023-11-10T09:15:18.147Z,2.40
2023-11-10T09:17:45.937Z,2.50
2023-11-10T09:20:14.688Z,2.40
2023-11-10T09:22:43.302Z,2.10
2023-11-10T09:25:17.900Z,2.70
2023-11-10T09:27:45.932Z,2.90
2023-11-10T09:30:15.190Z,2.50
2023-11-10T09:32:43.593Z,2.90
2023-11-10T09:35:14.745Z,3.30
2023-11-10T09:37:42.482Z,2.90
2023-11-10T09:40:11.145Z,2.20
2023-11-10T09:42:40.939Z,2.40
2023-11-10T09:45:09.369Z,2.20
2023-11-10T09:47:37.617Z,2.10
2023-11-10T09:50:08.602Z,2.00
2023-11-10T09:52:39.302Z,2.10
2023-11-10T09:55:08.459Z,2.30
2023-11-10T09:57:37.379Z,2.20
2023-11-10T10:00:14.418Z,2.70
2023-11-10T10:02:44.673Z,2.90
2023-11-10T10:05:12.915Z,2.60
2023-11-10T10:07:40.917Z,2.50
2023-11-10T10:10:13.086Z,2.30
2023-11-10T10:12:41.994Z,2.20
2023-11-10T10:15:11.672Z,2.50
2023-11-10T10:17:39.852Z,2.70
2023-11-10T10:20:15.112Z,2.10
2023-11-10T10:22:48.134Z,2.80
2023-11-10T10:25:17.449Z,2.70
2023-11-10T10:27:45.473Z,3.40
2023-11-10T10:30:13.853Z,3.20
2023-11-10T10:32:41.751Z,2.70
2023-11-10T10:35:10.069Z,2.60
2023-11-10T10:37:41.722Z,3.60
2023-11-10T10:40:10.925Z,3.30
2023-11-10T10:42:43.317Z,3.60
2023-11-10T10:45:12.925Z,3.40
2023-11-10T10:47:42.492Z,3.60
2023-11-10T10:50:11.912Z,3.60
2023-11-10T10:52:43.669Z,3.60
2023-11-10T10:55:15.470Z,3.50
2023-11-10T10:57:45.690Z,3.30
2023-11-10T11:00:18.160Z,3.20
2023-11-10T11:02:59.590Z,3.50
2023-11-10T11:05:48.328Z,3.50
2023-11-10T11:08:23.567Z,3.10
2023-11-10T11:11:07.056Z,3.00
2023-11-10T11:14:03.269Z,3.20
2023-11-10T11:17:00.438Z,3.40
2023-11-10T11:19:32.139Z,3.40
2023-11-10T11:22:01.066Z,2.90
2023-11-10T11:24:33.767Z,2.70
2023-11-10T11:27:08.179Z,2.90
2023-11-10T11:29:38.326Z,3.10
2023-11-10T11:32:20.433Z,3.00
2023-11-10T11:34:55.242Z,3.00
2023-11-10T11:37:32.703Z,3.20
2023-11-10T11:40:02.626Z,3.80
2023-11-10T11:42:38.678Z,3.60
2023-11-10T11:45:18.020Z,4.00
2023-11-10T11:47:45.960Z,4.00
2023-11-10T11:50:14.861Z,4.20
2023-11-10T11:52:43.063Z,4.20
2023-11-10T11:55:11.173Z,4.40
2023-11-10T11:57:39.358Z,4.70
2023-11-10T12:00:10.156Z,4.40
2023-11-10T12:02:40.593Z,4.10
2023-11-10T12:05:15.244Z,4.00
2023-11-10T12:07:44.288Z,4.40
2023-11-10T12:10:15.320Z,5.10
2023-11-10T12:12:46.512Z,5.00
2023-11-10T12:15:14.579Z,4.70
2023-11-10T12:17:44.538Z,5.10
2023-11-10T12:20:13.362Z,5.00
2023-11-10T12:22:55.436Z,4.80
2023-11-10T12:25:27.785Z,4.30
2023-11-10T12:27:55.762Z,4.80
2023-11-10T12:30:25.030Z,4.60
2023-11-10T12:32:53.603Z,5.30
2023-11-10T12:35:22.206Z,5.00
2023-11-10T12:37:54.436Z,5.30
2023-11-10T12:40:24.765Z,4.80
2023-11-10T12:42:52.866Z,5.30
2023-11-10T12:45:20.981Z,4.70
2023-11-10T12:48:00.411Z,4.80
2023-11-10T12:50:33.994Z,4.80
2023-11-10T12:53:05.304Z,4.40
2023-11-10T12:55:33.627Z,4.80
2023-11-10T12:58:01.928Z,5.00
2023-11-10T13:00:30.355Z,4.90
2023-11-10T13:02:58.972Z,5.00
2023-11-10T13:05:27.023Z,5.00
2023-11-10T13:07:57.414Z,4.80
2023-11-10T13:10:25.313Z,4.40
2023-11-10T13:12:54.657Z,4.20
2023-11-10T13:15:22.533Z,4.00
2023-11-10T13:17:52.874Z,7.10
2023-11-10T13:20:24.499Z,4.30
2023-11-10T13:22:55.909Z,4.20
2023-11-10T13:25:23.769Z,4.60
2023-11-10T13:27:51.956Z,4.40
2023-11-10T13:30:20.013Z,4.40
2023-11-10T13:32:54.229Z,4.40
2023-11-10T13:35:22.011Z,4.30
2023-11-10T13:37:49.899Z,4.30
2023-11-10T13:40:19.007Z,4.60
2023-11-10T13:42:46.803Z,4.20
2023-11-10T13:45:14.942Z,4.40
2023-11-10T13:47:43.008Z,4.70
2023-11-10T13:50:12.795Z,3.90
2023-11-10T13:52:41.946Z,4.00
2023-11-10T13:55:12.077Z,4.00
2023-11-10T13:57:40.596Z,3.90
2023-11-10T14:00:13.469Z,3.50
2023-11-10T14:05:10.823Z,4.90
2023-11-10T14:07:39.738Z,4.60
2023-11-10T14:10:10.582Z,5.00
2023-11-10T14:12:41.975Z,5.00
2023-11-10T14:15:11.683Z,5.00
2023-11-10T14:17:40.228Z,5.10
2023-11-10T14:20:10.258Z,4.60
2023-11-10T14:22:40.212Z,4.80
2023-11-10T14:25:09.975Z,4.80
2023-11-10T14:27:38.162Z,4.90
2023-11-10T14:30:09.604Z,5.90
2023-11-10T14:32:39.020Z,5.40
2023-11-10T14:35:11.582Z,5.50
2023-11-10T14:37:42.811Z,5.20
2023-11-10T14:40:18.890Z,5.50
2023-11-10T14:42:48.736Z,5.30
2023-11-10T14:45:22.607Z,5.30
2023-11-10T14:47:51.426Z,5.20
2023-11-10T14:50:35.477Z,5.90
2023-11-10T14:53:07.891Z,5.10
2023-11-10T14:55:35.700Z,5.40
2023-11-10T14:58:05.077Z,6.20
2023-11-10T15:00:36.176Z,5.80
2023-11-10T15:03:06.291Z,6.60
2023-11-10T15:05:37.115Z,6.00
2023-11-10T15:08:05.901Z,3.60
2023-11-10T15:10:39.106Z,4.50
2023-11-10T15:13:12.433Z,3.90
2023-11-10T15:15:50.252Z,2.10
2023-11-10T15:18:20.894Z,1.90
2023-11-10T15:20:48.833Z,1.60
2023-11-10T15:23:16.955Z,1.60
2023-11-10T15:25:46.845Z,1.50
2023-11-10T15:28:17.516Z,1.40
2023-11-10T15:30:46.036Z,1.80
2023-11-10T15:33:17.208Z,1.70
2023-11-10T15:35:51.271Z,1.40
2023-11-10T15:38:20.573Z,1.80
2023-11-10T15:40:49.785Z,2.00
2023-11-10T15:43:19.935Z,1.90
2023-11-10T15:45:49.650Z,1.80
2023-11-10T15:48:18.365Z,1.90
2023-11-10T15:50:46.751Z,2.50
2023-11-10T15:53:15.048Z,2.00
2023-11-10T15:55:43.154Z,2.00
2023-11-10T15:58:12.397Z,1.70
2023-11-10T16:00:41.999Z,1.70
2023-11-10T16:03:10.479Z,1.60
2023-11-10T16:05:41.465Z,1.30
2023-11-10T16:08:11.943Z,1.80
2023-11-10T16:10:39.848Z,1.80
2023-11-10T16:13:07.778Z,1.80
2023-11-10T16:15:35.542Z,1.60
2023-11-10T16:18:04.805Z,1.70
2023-11-10T16:20:33.708Z,1.90
2023-11-10T16:23:01.462Z,1.70
2023-11-10T16:25:29.368Z,1.90
2023-11-10T16:27:57.148Z,2.00
2023-11-10T16:30:26.106Z,2.10
2023-11-10T16:32:58.967Z,2.30
2023-11-10T16:35:27.861Z,2.50
2023-11-10T16:37:55.548Z,2.10
2023-11-10T16:40:23.366Z,1.90
2023-11-10T16:42:51.954Z,1.90
2023-11-10T16:45:21.844Z,1.90
2023-11-10T16:47:50.146Z,2.10
2023-11-10T16:50:18.576Z,2.20
2023-11-10T16:52:46.741Z,1.90
2023-11-10T16:55:15.385Z,1.90
2023-11-10T16:57:43.167Z,2.60
2023-11-10T17:00:15.632Z,1.90
2023-11-10T17:02:46.239Z,1.90
2023-11-10T17:05:23.535Z,1.70
2023-11-10T17:07:51.408Z,2.10
2023-11-10T17:10:20.117Z,2.30
2023-11-10T17:12:49.269Z,2.30
2023-11-10T17:15:17.118Z,2.50
2023-11-10T17:17:46.741Z,2.30
2023-11-10T17:20:14.479Z,2.50
2023-11-10T17:22:42.668Z,2.40
2023-11-10T17:25:11.325Z,2.30
2023-11-10T17:27:40.080Z,2.80
2023-11-10T17:30:08.872Z,2.60
2023-11-10T17:32:37.337Z,3.70
2023-11-10T17:35:05.887Z,4.20
2023-11-10T17:37:34.411Z,4.80
2023-11-10T17:40:02.333Z,5.70
2023-11-10T17:42:30.515Z,7.70
2023-11-10T17:44:58.294Z,7.00
2023-11-10T17:47:25.985Z,5.50
2023-11-10T17:49:53.715Z,6.70
2023-11-10T17:52:21.423Z,4.10
2023-11-10T17:54:49.225Z,4.30
2023-11-10T17:57:17.151Z,4.90
2023-11-10T17:59:48.127Z,6.00
2023-11-10T18:02:16.057Z,4.80
2023-11-10T18:04:52.109Z,4.10
2023-11-10T18:07:24.667Z,5.20
2023-11-10T18:09:52.381Z,5.30
2023-11-10T18:12:20.673Z,5.50
2023-11-10T18:14:51.131Z,5.30
2023-11-10T18:17:19.093Z,5.80
2023-11-10T18:19:46.945Z,6.50
2023-11-10T18:22:15.075Z,6.20
2023-11-10T18:24:43.254Z,6.60
2023-11-10T18:27:10.880Z,6.20
2023-11-10T18:29:38.636Z,4.90
2023-11-10T18:32:06.610Z,6.10
2023-11-10T18:34:35.251Z,5.80
2023-11-10T18:37:03.345Z,5.80
2023-11-10T18:39:31.388Z,5.60
2023-11-10T18:41:59.255Z,4.60
2023-11-10T18:44:27.226Z,5.30
2023-11-10T18:46:55.124Z,5.90
2023-11-10T18:49:23.086Z,5.30
2023-11-10T18:51:51.008Z,4.70
2023-11-10T18:54:18.783Z,5.00
2023-11-10T18:56:47.825Z,4.70
2023-11-10T18:59:15.676Z,5.60
2023-11-10T19:01:44.440Z,4.80
2023-11-10T19:04:12.340Z,4.20
2023-11-10T19:06:41.329Z,4.30
2023-11-10T19:09:10.199Z,4.30
2023-11-10T19:11:38.781Z,6.40
2023-11-10T19:14:07.237Z,5.60
2023-11-10T19:16:35.216Z,5.00
2023-11-10T19:19:02.989Z,5.60
2023-11-10T19:21:30.903Z,4.60
2023-11-10T19:24:00.582Z,4.90
2023-11-10T19:26:28.638Z,5.50
2023-11-10T19:28:56.847Z,4.80
2023-11-10T19:31:24.992Z,4.70
2023-11-10T19:33:52.820Z,3.20
2023-11-10T19:36:24.225Z,4.00
2023-11-10T19:38:53.174Z,4.50
2023-11-10T19:41:20.874Z,4.40
2023-11-10T19:43:52.050Z,4.20
2023-11-10T19:46:21.177Z,5.70
2023-11-10T19:48:52.029Z,4.10
2023-11-10T19:56:21.869Z,4.70
2023-11-10T20:01:20.276Z,6.00
2023-11-10T20:03:48.265Z,4.10
2023-11-10T20:06:16.079Z,4.50
2023-11-10T20:08:45.251Z,5.80
2023-11-10T20:11:20.191Z,5.30
2023-11-10T20:13:50.270Z,4.60
2023-11-10T20:16:21.460Z,4.20
2023-11-10T20:18:50.028Z,4.30
2023-11-10T20:21:18.023Z,4.80
2023-11-10T20:23:46.020Z,5.20
2023-11-10T20:26:14.431Z,5.80
2023-11-10T20:28:42.117Z,4.70
2023-11-10T20:31:10.530Z,5.00
2023-11-10T20:33:38.257Z,4.50
2023-11-10T20:36:07.392Z,4.70
2023-11-10T20:38:35.220Z,4.90
2023-11-10T20:41:04.815Z,4.50
2023-11-10T20:43:33.880Z,4.90
2023-11-10T20:46:01.617Z,4.90
2023-11-10T20:48:31.629Z,5.10
2023-11-10T20:50:59.467Z,5.20
2023-11-10T20:53:28.905Z,4.60
2023-11-10T20:55:56.562Z,5.30
2023-11-10T20:58:24.368Z,4.60
2023-11-10T21:00:52.243Z,4.90
2023-11-10T21:03:20.401Z,4.80
2023-11-10T21:05:48.402Z,4.30
2023-11-10T21:08:16.373Z,4.30
2023-11-10T21:10:44.134Z,4.50
2023-11-10T21:13:12.255Z,4.20
2023-11-10T21:15:47.101Z,4.10
2023-11-10T21:18:19.457Z,4.00
2023-11-10T21:20:47.763Z,3.80
2023-11-10T21:23:18.820Z,3.60
2023-11-10T21:25:46.998Z,3.70
2023-11-10T21:28:15.104Z,3.70
2023-11-10T21:30:47.925Z,3.70
2023-11-10T21:33:39.654Z,4.00
2023-11-10T21:36:10.029Z,3.90
2023-11-10T21:38:39.149Z,4.80
2023-11-10T21:41:07.088Z,4.60
2023-11-10T21:43:35.660Z,5.80
2023-11-10T21:46:03.697Z,5.90
2023-11-10T21:48:31.539Z,5.50
2023-11-10T21:51:01.739Z,4.70
2023-11-10T21:53:29.608Z,5.40
2023-11-10T21:55:57.267Z,5.00
2023-11-10T21:58:24.916Z,4.70
2023-11-10T22:00:53.825Z,5.10
2023-11-10T22:03:22.124Z,4.70
2023-11-10T22:05:50.573Z,5.30
2023-11-10T22:08:22.781Z,5.50
2023-11-10T22:10:50.741Z,5.40
2023-11-10T22:13:19.001Z,5.00
2023-11-10T22:15:47.178Z,4.30
2023-11-10T22:18:15.458Z,4.40
2023-11-10T22:20:43.625Z,4.60
2023-11-10T22:23:11.478Z,4.30
2023-11-10T22:25:39.426Z,4.90
2023-11-10T22:28:07.079Z,4.70
2023-11-10T22:30:34.934Z,5.20
2023-11-10T22:33:04.227Z,3.80
2023-11-10T22:35:31.984Z,3.70
2023-11-10T22:38:00.217Z,3.40
2023-11-10T22:40:28.038Z,4.40
2023-11-10T22:42:56.100Z,4.80
2023-11-10T22:45:24.166Z,4.30
2023-11-10T22:47:52.423Z,4.40
2023-11-10T22:50:20.403Z,4.50
2023-11-10T22:52:48.738Z,4.10
2023-11-10T22:55:17.954Z,4.30
2023-11-10T22:57:46.908Z,4.10
2023-11-10T23:00:28.711Z,4.00
2023-11-10T23:02:57.224Z,4.60
2023-11-10T23:05:25.635Z,4.20
2023-11-10T23:07:53.547Z,4.60
2023-11-10T23:10:21.818Z,4.40
2023-11-10T23:12:50.401Z,4.50
2023-11-10T23:15:18.846Z,4.40
2023-11-10T23:17:47.471Z,3.80
2023-11-10T23:20:26.248Z,4.00
2023-11-10T23:22:58.870Z,3.50
2023-11-10T23:25:26.740Z,4.00
2023-11-10T23:27:54.825Z,3.80
2023-11-10T23:30:23.093Z,3.40
2023-11-10T23:32:52.762Z,3.30
2023-11-10T23:35:21.139Z,3.40
2023-11-10T23:37:49.690Z,4.20
2023-11-10T23:40:17.315Z,4.20
2023-11-10T23:42:44.964Z,4.40
2023-11-10T23:45:13.607Z,4.30
2023-11-10T23:47:41.378Z,4.10
2023-11-10T23:50:09.272Z,3.90
2023-11-10T23:52:39.260Z,4.20
2023-11-10T23:55:07.962Z,4.30
2023-11-10T23:57:36.772Z,3.80
